Time;durP1;ratioP1;P1;durP2;ratioP2;P2;SDS_P1;SDS_P2;PMS_P1;PMS_P2;Temp;Humidity;BMP_temperature;BMP_pressure;BME280_temperature;BME280_humidity;BME280_pressure;Samples;Min_cycle;Max_cycle;Signal;HPM_P1;HPM_P2
2021/03/03 00:00:21;;;;;;;27.37;15.10;;;;;;;-0.35;81.09;102209.09;5031217;28;20045;-72
2021/03/03 00:02:47;;;;;;;26.17;15.60;;;;;;;-0.34;81.14;102207.41;5031160;28;20042;-72
2021/03/03 00:05:13;;;;;;;27.10;15.10;;;;;;;-0.33;81.14;102215.28;5021386;28;20079;-73
2021/03/03 00:07:38;;;;;;;26.10;15.57;;;;;;;-0.33;80.63;102214.41;5031078;28;20483;-72
2021/03/03 00:10:04;;;;;;;25.53;15.20;;;;;;;-0.38;81.14;102216.69;5030965;28;20037;-73
2021/03/03 00:12:30;;;;;;;24.17;13.53;;;;;;;-0.42;81.39;102208.59;5030968;28;20122;-73
2021/03/03 00:14:55;;;;;;;27.87;14.87;;;;;;;-0.43;81.21;102212.91;5030979;28;20480;-73
2021/03/03 00:17:21;;;;;;;25.43;13.70;;;;;;;-0.43;82.32;102217.19;5030792;28;20048;-73
2021/03/03 00:19:46;;;;;;;27.37;15.17;;;;;;;-0.43;81.90;102215.50;5030997;28;20120;-72
2021/03/03 00:22:11;;;;;;;25.47;14.40;;;;;;;-0.43;81.45;102222.38;5030931;28;20068;-72
2021/03/03 00:24:37;;;;;;;25.83;14.50;;;;;;;-0.45;81.83;102223.19;5030826;28;20041;-73
2021/03/03 00:27:02;;;;;;;29.60;17.13;;;;;;;-0.49;81.71;102218.59;5012970;28;20542;-72
2021/03/03 00:29:27;;;;;;;29.07;15.60;;;;;;;-0.48;82.28;102215.19;5013235;28;20083;-72
2021/03/03 00:31:53;;;;;;;26.13;14.23;;;;;;;-0.54;81.69;102216.50;5030877;28;20037;-73
2021/03/03 00:34:18;;;;;;;32.80;16.30;;;;;;;-0.43;83.06;102217.19;5030711;28;20407;-72
2021/03/03 00:36:43;;;;;;;31.23;16.23;;;;;;;-0.39;82.38;102212.31;5030862;28;20402;-74
2021/03/03 00:39:09;;;;;;;26.90;14.37;;;;;;;-0.42;82.49;102211.19;5012927;28;20029;-74
2021/03/03 00:41:34;;;;;;;34.07;19.23;;;;;;;-0.40;82.09;102205.31;5013157;28;20041;-74
2021/03/03 00:43:59;;;;;;;30.17;16.13;;;;;;;-0.37;81.55;102194.22;5013009;28;20029;-74
2021/03/03 00:46:25;;;;;;;29.03;15.67;;;;;;;-0.35;81.89;102197.84;5030449;28;20041;-75
2021/03/03 00:48:52;;;;;;;27.87;15.13;;;;;;;-0.36;81.67;102199.53;5015362;28;20035;-74
2021/03/03 00:51:18;;;;;;;33.97;17.73;;;;;;;-0.38;81.76;102200.22;5016668;28;20083;-75
2021/03/03 00:53:45;;;;;;;28.27;16.00;;;;;;;-0.42;81.36;102204.31;5016337;28;20045;-74
2021/03/03 00:56:10;;;;;;;28.40;16.10;;;;;;;-0.45;81.45;102197.25;5016667;28;20056;-74
2021/03/03 00:58:36;;;;;;;27.43;14.17;;;;;;;-0.48;81.18;102199.63;5016594;28;20499;-74
2021/03/03 01:01:01;;;;;;;31.30;16.03;;;;;;;-0.51;81.11;102191.66;5034355;28;20548;-74
2021/03/03 01:03:30;;;;;;;38.80;19.87;;;;;;;-0.51;81.72;102194.25;5016185;28;20034;-74
2021/03/03 01:06:05;;;;;;;32.70;16.73;;;;;;;-0.49;81.43;102192.66;5016219;28;20484;-74
2021/03/03 01:08:30;;;;;;;36.43;18.83;;;;;;;-0.50;81.63;102190.88;5016434;28;20061;-74
2021/03/03 01:10:56;;;;;;;37.10;19.13;;;;;;;-0.53;81.55;102190.63;5016379;28;20128;-74
2021/03/03 01:13:25;;;;;;;37.63;20.00;;;;;;;-0.54;81.30;102187.97;5016248;28;20484;-74
2021/03/03 01:15:53;;;;;;;30.13;16.23;;;;;;;-0.58;80.99;102185.94;5016116;28;20083;-74
2021/03/03 01:18:25;;;;;;;30.85;17.73;;;;;;;-0.65;81.43;102191.56;5016289;28;20151;-74
2021/03/03 01:20:50;;;;;;;31.60;16.23;;;;;;;-0.67;81.22;102187.16;5033911;28;20088;-74
2021/03/03 01:23:15;;;;;;;31.93;16.63;;;;;;;-0.68;82.01;102185.38;5033854;28;20057;-74
2021/03/03 01:25:41;;;;;;;35.87;19.47;;;;;;;-0.70;82.06;102186.06;5033623;28;20088;-74
2021/03/03 01:28:09;;;;;;;36.23;18.37;;;;;;;-0.73;82.43;102180.69;5033847;28;20076;-74
2021/03/03 01:30:34;;;;;;;27.47;16.73;;;;;;;-0.73;82.17;102181.56;5016109;28;20106;-74
2021/03/03 01:32:59;;;;;;;33.97;18.43;;;;;;;-0.76;82.30;102183.03;5033499;28;20033;-74
2021/03/03 01:35:25;;;;;;;37.50;17.57;;;;;;;-0.75;81.70;102177.09;5033372;28;20047;-74
2021/03/03 01:37:50;;;;;;;45.57;23.00;;;;;;;-0.76;81.51;102173.59;5033692;28;20120;-74
2021/03/03 01:40:16;;;;;;;47.90;21.90;;;;;;;-0.77;82.29;102165.72;5033489;28;20080;-74
2021/03/03 01:42:41;;;;;;;34.60;19.13;;;;;;;-0.78;81.44;102167.41;5033419;28;20041;-73
2021/03/03 01:45:07;;;;;;;36.53;18.83;;;;;;;-0.81;81.72;102167.22;5033162;28;20379;-73
2021/03/03 01:47:33;;;;;;;33.23;18.00;;;;;;;-0.83;81.41;102160.13;5015722;28;20033;-74
2021/03/03 01:49:58;;;;;;;35.83;17.70;;;;;;;-0.86;81.52;102157.31;5033403;28;20041;-73
2021/03/03 01:52:23;;;;;;;34.33;18.10;;;;;;;-0.91;82.02;102155.31;5033326;28;20478;-74
2021/03/03 01:54:49;;;;;;;36.70;17.00;;;;;;;-0.93;81.59;102151.72;5033140;28;20383;-74
2021/03/03 01:57:14;;;;;;;33.83;17.20;;;;;;;-0.98;81.91;102153.13;5033057;28;20037;-74
2021/03/03 01:59:39;;;;;;;37.77;18.43;;;;;;;-0.99;82.17;102151.34;5032016;28;20088;-74
2021/03/03 02:02:06;;;;;;;40.53;19.37;;;;;;;-1.01;82.88;102150.31;5033260;28;20435;-74
2021/03/03 02:04:32;;;;;;;34.63;16.97;;;;;;;-0.97;82.61;102144.56;5032983;28;20051;-74
2021/03/03 02:07:09;;;;;;;40.07;18.93;;;;;;;-1.00;82.12;102144.34;5032893;28;20048;-73
2021/03/03 02:09:48;;;;;;;35.73;17.97;;;;;;;-1.05;82.17;102145.72;5033021;28;20488;-74
2021/03/03 02:12:14;;;;;;;39.23;19.70;;;;;;;-1.11;82.20;102129.78;5015211;28;20103;-74
2021/03/03 02:14:43;;;;;;;40.20;19.00;;;;;;;-1.14;81.88;102134.75;5032859;28;20037;-74
2021/03/03 02:17:09;;;;;;;38.00;18.87;;;;;;;-1.10;82.97;102131.59;5032677;28;20049;-74
2021/03/03 02:19:38;;;;;;;35.07;18.13;;;;;;;-1.09;82.38;102128.19;5032815;28;20179;-74
2021/03/03 02:22:35;;;;;;;32.30;16.43;;;;;;;-1.19;82.41;102120.59;5032804;28;20034;-74
2021/03/03 02:25:20;;;;;;;36.53;17.60;;;;;;;-1.17;83.13;102116.44;4989098;28;20049;-74
2021/03/03 02:27:46;;;;;;;34.87;18.80;;;;;;;-1.16;83.42;102102.66;5032266;28;20511;-74
2021/03/03 02:30:13;;;;;;;36.90;18.90;;;;;;;-1.15;82.84;102107.97;5032625;28;20029;-74
2021/03/03 02:32:39;;;;;;;38.23;19.30;;;;;;;-1.14;82.80;102103.66;5032560;28;20502;-74
2021/03/03 02:35:06;;;;;;;35.67;17.70;;;;;;;-1.12;83.01;102102.97;5032228;28;20128;-74
2021/03/03 02:37:32;;;;;;;36.27;19.17;;;;;;;-1.11;82.37;102099.56;5032453;28;20033;-74
2021/03/03 02:39:58;;;;;;;39.77;19.63;;;;;;;-1.09;82.67;102097.09;5032381;28;20281;-74
2021/03/03 02:42:23;;;;;;;44.43;22.13;;;;;;;-1.08;83.42;102096.28;5014712;28;20044;-75
2021/03/03 02:44:49;;;;;;;41.63;20.63;;;;;;;-1.08;83.32;102093.69;5032241;28;20456;-74
2021/03/03 02:47:15;;;;;;;47.07;21.60;;;;;;;-1.04;83.41;102094.81;5032033;28;20036;-74
2021/03/03 02:49:43;;;;;;;45.73;22.97;;;;;;;-1.03;82.95;102096.59;5032197;28;20044;-74
2021/03/03 02:52:08;;;;;;;36.97;19.50;;;;;;;-1.08;82.51;102085.94;5032192;28;20033;-74
2021/03/03 02:54:33;;;;;;;38.10;19.03;;;;;;;-1.11;82.40;102086.63;5031895;28;20041;-74
2021/03/03 02:57:00;;;;;;;47.33;23.77;;;;;;;-1.15;82.60;102086.34;5031943;28;20048;-74
2021/03/03 02:59:35;;;;;;;41.70;20.63;;;;;;;-1.23;82.54;102082.31;5031995;28;20045;-74
2021/03/03 03:02:04;;;;;;;40.97;20.70;;;;;;;-1.24;82.67;102080.53;5032192;28;20686;-74
2021/03/03 03:04:33;;;;;;;40.30;20.07;;;;;;;-1.27;82.51;102076.06;5022111;28;20029;-74
2021/03/03 03:07:05;;;;;;;39.50;19.93;;;;;;;-1.28;82.91;102078.53;5013986;28;20041;-74
2021/03/03 03:09:33;;;;;;;43.13;21.65;;;;;;;-1.33;82.15;102081.72;5014231;28;20063;-74
2021/03/03 03:11:58;;;;;;;43.50;21.80;;;;;;;-1.35;82.63;102078.13;5031494;28;20037;-73
2021/03/03 03:14:26;;;;;;;39.90;21.37;;;;;;;-1.34;81.92;102069.59;5031603;28;20048;-74
2021/03/03 03:16:54;;;;;;;42.73;21.20;;;;;;;-1.32;83.26;102078.31;5023749;28;20416;-74
2021/03/03 03:19:24;;;;;;;45.57;21.80;;;;;;;-1.30;83.39;102080.16;5031574;28;20036;-74
2021/03/03 03:21:50;;;;;;;42.93;21.73;;;;;;;-1.32;82.58;102082.63;5031679;28;20095;-74
2021/03/03 03:24:19;;;;;;;45.87;20.23;;;;;;;-1.35;82.64;102079.81;5031523;28;20114;-74
2021/03/03 03:26:48;;;;;;;43.63;21.60;;;;;;;-1.34;82.47;102072.16;5031612;28;20423;-74
2021/03/03 03:29:15;;;;;;;44.93;22.40;;;;;;;-1.33;82.83;102076.53;5031513;28;20340;-73
2021/03/03 03:31:41;;;;;;;38.60;20.07;;;;;;;-1.25;83.38;102074.47;5031517;28;20034;-74
2021/03/03 03:34:08;;;;;;;47.47;22.77;;;;;;;-1.14;83.30;102075.16;5031267;28;20056;-73
2021/03/03 03:36:35;;;;;;;41.30;19.77;;;;;;;-1.08;82.48;102072.97;5031410;28;20403;-75
2021/03/03 03:39:02;;;;;;;47.40;23.03;;;;;;;-1.12;82.41;102066.69;5031356;28;20044;-75
2021/03/03 03:41:29;;;;;;;45.93;23.10;;;;;;;-1.16;82.04;102066.38;5031351;28;20052;-74
2021/03/03 03:43:56;;;;;;;43.03;22.17;;;;;;;-1.18;81.89;102058.53;5021887;28;20120;-75
2021/03/03 03:46:21;;;;;;;44.87;20.50;;;;;;;-1.24;81.23;102071.06;5030798;28;20037;-73
2021/03/03 03:48:47;;;;;;;39.90;18.93;;;;;;;-1.31;81.84;102063.72;5031366;28;20056;-74
2021/03/03 03:51:12;;;;;;;35.30;18.30;;;;;;;-1.35;81.19;102072.06;5031240;28;20033;-74
2021/03/03 03:53:38;;;;;;;40.60;20.87;;;;;;;-1.39;80.61;102068.38;5030987;28;20041;-74
2021/03/03 03:56:07;;;;;;;41.63;19.43;;;;;;;-1.43;80.60;102066.38;5031091;28;20120;-74
2021/03/03 03:58:33;;;;;;;39.97;20.10;;;;;;;-1.46;81.36;102066.16;5031184;28;20116;-74
2021/03/03 04:00:58;;;;;;;43.60;21.40;;;;;;;-1.51;80.99;102070.13;5013281;28;20124;-74
2021/03/03 04:03:23;;;;;;;40.37;19.70;;;;;;;-1.56;81.59;102064.63;5031055;28;20021;-74
2021/03/03 04:05:49;;;;;;;44.27;21.13;;;;;;;-1.58;81.00;102062.75;5030831;28;20500;-74
2021/03/03 04:08:14;;;;;;;39.90;20.17;;;;;;;-1.59;81.27;102071.31;5031029;28;20513;-74
2021/03/03 04:10:39;;;;;;;41.77;19.80;;;;;;;-1.63;81.75;102065.00;5031088;28;20120;-74
2021/03/03 04:13:05;;;;;;;38.30;19.97;;;;;;;-1.66;81.48;102074.28;5031011;28;20518;-74
2021/03/03 04:15:30;;;;;;;40.43;19.80;;;;;;;-1.71;81.30;102067.88;5030706;28;20480;-74
2021/03/03 04:17:56;;;;;;;40.27;19.50;;;;;;;-1.77;80.68;102070.97;5029218;28;20040;-74
2021/03/03 04:20:22;;;;;;;43.47;20.83;;;;;;;-1.80;81.52;102079.41;5030631;28;20051;-74
2021/03/03 04:22:47;;;;;;;45.20;22.23;;;;;;;-1.84;81.33;102079.97;5013595;28;20052;-74
2021/03/03 04:25:15;;;;;;;44.93;22.67;;;;;;;-1.85;81.35;102067.84;5034680;28;20478;-74
2021/03/03 04:27:40;;;;;;;44.27;20.87;;;;;;;-1.82;81.82;102072.34;5034805;28;20071;-74
2021/03/03 04:30:08;;;;;;;38.07;19.37;;;;;;;-1.84;81.27;102074.81;5034755;28;20083;-75
2021/03/03 04:32:34;;;;;;;38.57;18.73;;;;;;;-1.88;80.64;102062.47;5017023;28;20480;-75
2021/03/03 04:34:59;;;;;;;43.03;20.57;;;;;;;-1.87;81.82;102066.84;5034548;28;20048;-74
2021/03/03 04:37:24;;;;;;;38.63;18.27;;;;;;;-1.88;80.74;102067.63;5034612;28;20029;-74
2021/03/03 04:39:50;;;;;;;41.87;19.73;;;;;;;-1.90;81.78;102071.81;5034545;28;20041;-74
2021/03/03 04:42:15;;;;;;;38.23;18.37;;;;;;;-1.95;81.40;102070.59;5034698;28;20037;-73
2021/03/03 04:44:40;;;;;;;43.63;20.00;;;;;;;-1.94;81.78;102067.19;5034526;28;20037;-74
2021/03/03 04:47:06;;;;;;;45.13;20.77;;;;;;;-1.93;82.46;102062.94;5034229;28;20029;-74
2021/03/03 04:49:31;;;;;;;46.17;20.93;;;;;;;-1.89;82.39;102059.75;5034392;28;20172;-74
2021/03/03 04:51:56;;;;;;;38.90;18.70;;;;;;;-1.86;82.42;102065.13;5034645;28;20037;-74
2021/03/03 04:54:22;;;;;;;37.47;17.67;;;;;;;-1.86;82.61;102060.88;5034226;28;20036;-75
2021/03/03 04:56:47;;;;;;;36.33;17.90;;;;;;;-1.87;81.49;102061.66;5034055;28;20369;-74
2021/03/03 04:59:12;;;;;;;35.83;17.53;;;;;;;-1.87;82.21;102053.91;5034705;28;20547;-75
2021/03/03 05:01:38;;;;;;;39.73;17.87;;;;;;;-1.90;81.31;102058.88;5034330;28;20523;-74
2021/03/03 05:04:03;;;;;;;37.87;19.33;;;;;;;-1.93;81.10;102048.31;5016151;28;20511;-73
2021/03/03 05:06:29;;;;;;;41.67;18.27;;;;;;;-1.94;82.84;102046.50;5034023;28;20508;-74
2021/03/03 05:08:55;;;;;;;43.43;19.73;;;;;;;-1.88;82.68;102056.41;5034197;28;20064;-74
2021/03/03 05:11:23;;;;;;;43.50;19.23;;;;;;;-1.88;82.92;102056.41;5034141;28;20044;-74
2021/03/03 05:13:48;;;;;;;40.20;18.83;;;;;;;-1.89;82.60;102047.72;5030523;28;20061;-75
2021/03/03 05:16:14;;;;;;;43.53;21.53;;;;;;;-1.87;83.23;102040.97;5032894;28;20159;-74
2021/03/03 05:18:39;;;;;;;47.20;21.63;;;;;;;-1.90;82.76;102040.75;5033928;28;20064;-75
2021/03/03 05:21:05;;;;;;;45.10;21.00;;;;;;;-1.88;83.25;102033.13;5033958;28;20029;-74
2021/03/03 05:23:31;;;;;;;40.90;20.07;;;;;;;-1.82;83.08;102039.59;5033759;28;20033;-74
2021/03/03 05:25:58;;;;;;;39.07;19.00;;;;;;;-1.79;82.18;102044.97;5032728;28;20040;-73
2021/03/03 05:28:23;;;;;;;42.73;19.70;;;;;;;-1.87;81.94;102046.13;5033698;28;20408;-74
2021/03/03 05:30:49;;;;;;;35.57;18.33;;;;;;;-1.95;82.28;102049.88;5033170;28;20036;-74
2021/03/03 05:33:31;;;;;;;38.33;20.23;;;;;;;-2.00;82.26;102046.97;5033464;28;20403;-75
2021/03/03 05:35:59;;;;;;;36.58;17.00;;;;;;;-1.97;82.19;102051.47;5026226;28;20480;-74
2021/03/03 05:38:24;;;;;;;37.00;18.20;;;;;;;-1.94;82.81;102051.66;5033723;28;20124;-75
2021/03/03 05:40:52;;;;;;;39.80;19.50;;;;;;;-1.90;82.29;102057.97;5033579;28;20128;-75
2021/03/03 05:43:17;;;;;;;33.00;16.93;;;;;;;-1.90;82.05;102056.28;5033504;28;20029;-74
2021/03/03 05:45:45;;;;;;;43.37;21.07;;;;;;;-1.88;82.62;102052.13;5033287;28;20116;-75
2021/03/03 05:48:22;;;;;;;40.87;22.47;;;;;;;-1.87;82.63;102053.91;5015558;28;20095;-75
2021/03/03 05:50:55;;;;;;;45.40;24.47;;;;;;;-1.84;82.66;102050.63;5033438;28;20045;-75
2021/03/03 05:53:22;;;;;;;39.67;22.40;;;;;;;-1.82;82.36;102049.03;5033164;28;20123;-75
2021/03/03 05:55:47;;;;;;;42.43;20.37;;;;;;;-1.75;83.11;102043.50;5065825;22;20057;-70
2021/03/03 05:58:13;;;;;;;47.20;22.40;;;;;;;-1.74;82.56;102053.03;5050564;28;20043;-69
2021/03/03 06:00:38;;;;;;;40.27;19.60;;;;;;;-1.68;82.97;102049.97;5052834;28;20119;-69
2021/03/03 06:03:04;;;;;;;46.90;23.57;;;;;;;-1.63;82.72;102040.81;5052554;28;20060;-69
2021/03/03 06:05:34;;;;;;;43.80;22.20;;;;;;;-1.64;81.79;102034.75;5052773;28;20037;-69
2021/03/03 06:08:00;;;;;;;41.40;20.10;;;;;;;-1.66;82.21;102043.22;5053239;28;20051;-69
2021/03/03 06:10:25;;;;;;;35.80;18.27;;;;;;;-1.63;82.03;102043.41;5052948;28;20032;-69
2021/03/03 06:12:51;;;;;;;39.17;20.00;;;;;;;-1.62;81.72;102035.75;5044759;28;20037;-69
2021/03/03 06:15:16;;;;;;;42.70;19.37;;;;;;;-1.59;82.12;102035.97;5052633;28;20025;-69
2021/03/03 06:17:43;;;;;;;34.10;16.83;;;;;;;-1.53;81.85;102026.81;5052916;28;20483;-69
2021/03/03 06:20:11;;;;;;;33.97;17.73;;;;;;;-1.58;81.09;102029.09;5051236;28;20123;-69
2021/03/03 06:22:37;;;;;;;38.47;19.13;;;;;;;-1.54;81.81;102028.50;5052547;28;20036;-69
2021/03/03 06:25:16;;;;;;;37.17;18.77;;;;;;;-1.46;81.90;102023.84;5052265;28;20407;-69
2021/03/03 06:27:41;;;;;;;36.67;17.93;;;;;;;-1.38;81.87;102031.31;5052573;28;20093;-69
2021/03/03 06:30:13;;;;;;;38.03;21.20;;;;;;;-1.29;81.10;102024.94;5051752;28;20498;-69
2021/03/03 06:32:58;;;;;;;40.07;21.00;;;;;;;-1.27;81.61;102024.25;5051774;28;20032;-69
2021/03/03 06:35:39;;;;;;;38.30;19.63;;;;;;;-1.21;81.50;102027.22;5033721;28;20434;-69
2021/03/03 06:38:06;;;;;;;45.47;19.47;;;;;;;-1.11;81.31;102023.53;5052378;28;20419;-69
2021/03/03 06:40:32;;;;;;;40.77;19.87;;;;;;;-1.03;81.49;102024.94;5052209;28;20124;-69
2021/03/03 06:43:16;;;;;;;46.60;20.57;;;;;;;-0.99;80.92;102020.88;5052323;28;20037;-69
2021/03/03 06:45:41;;;;;;;57.47;24.53;;;;;;;-0.89;81.57;102013.78;5051334;28;20115;-69
2021/03/03 06:48:07;;;;;;;57.47;27.20;;;;;;;-0.74;81.50;102020.72;5052231;28;20037;-69
2021/03/03 06:50:34;;;;;;;63.50;26.93;;;;;;;-0.58;82.26;102019.97;5052043;28;20044;-69
2021/03/03 06:53:00;;;;;;;50.87;24.37;;;;;;;-0.48;81.12;102019.75;5051997;28;20041;-69
2021/03/03 06:55:42;;;;;;;42.10;19.37;;;;;;;-0.45;80.53;102018.28;5051583;28;20044;-70
2021/03/03 06:58:28;;;;;;;34.53;18.63;;;;;;;-0.44;80.21;102024.34;5049679;28;20033;-69
2021/03/03 07:00:54;;;;;;;39.80;19.17;;;;;;;-0.40;80.69;102021.13;5045708;28;20043;-69
2021/03/03 07:03:31;;;;;;;37.17;20.10;;;;;;;-0.29;80.07;102014.94;5050998;28;20029;-69
2021/03/03 07:05:56;;;;;;;38.53;19.00;;;;;;;-0.18;79.97;102013.00;5042529;28;20041;-69
2021/03/03 07:08:22;;;;;;;33.13;17.83;;;;;;;-0.08;80.78;102010.16;5051543;28;20040;-69
2021/03/03 07:10:48;;;;;;;32.27;17.57;;;;;;;0.03;80.48;102007.28;5051261;28;20074;-69
2021/03/03 07:13:14;;;;;;;33.40;18.07;;;;;;;0.14;80.19;102014.91;5048948;28;20115;-70
2021/03/03 07:15:39;;;;;;;29.63;16.37;;;;;;;0.29;80.21;102016.63;5051228;28;20163;-69
2021/03/03 07:18:27;;;;;;;32.20;16.40;;;;;;;0.43;80.45;102019.22;5045695;28;20037;-69
2021/03/03 07:20:52;;;;;;;33.07;17.47;;;;;;;0.56;79.96;102006.97;5037431;28;20502;-69
2021/03/03 07:23:18;;;;;;;31.00;16.83;;;;;;;0.67;79.35;102007.59;5051488;28;20060;-69
2021/03/03 07:25:43;;;;;;;31.37;16.47;;;;;;;0.79;78.83;102013.50;5051256;28;20060;-70
2021/03/03 07:28:11;;;;;;;32.83;16.80;;;;;;;0.94;78.71;102006.53;5051641;28;20407;-70
2021/03/03 07:30:37;;;;;;;32.87;17.27;;;;;;;1.08;78.56;101995.22;5051367;28;20037;-70
2021/03/03 07:33:03;;;;;;;31.57;16.93;;;;;;;1.18;78.50;101996.66;5051438;28;20037;-70
2021/03/03 07:35:28;;;;;;;30.53;16.70;;;;;;;1.27;78.29;101997.13;5051215;28;20029;-69
2021/03/03 07:37:56;;;;;;;31.70;16.47;;;;;;;1.38;78.86;101996.81;5051355;28;20699;-70
2021/03/03 07:40:26;;;;;;;33.83;16.30;;;;;;;1.47;78.47;101998.22;5051387;28;20541;-70
2021/03/03 07:42:54;;;;;;;30.13;17.25;;;;;;;1.57;78.88;101991.78;5043079;28;20049;-69
2021/03/03 07:45:20;;;;;;;26.75;16.58;;;;;;;1.68;78.24;101990.69;5050952;28;20029;-69
2021/03/03 07:47:49;;;;;;;31.15;15.60;;;;;;;1.81;77.88;101987.03;5051237;28;20075;-70
2021/03/03 07:50:17;;;;;;;27.47;16.43;;;;;;;1.96;77.31;101989.50;5051219;28;20069;-70
2021/03/03 07:52:52;;;;;;;30.35;18.48;;;;;;;2.10;77.06;101990.25;5051113;28;20039;-70
2021/03/03 07:55:18;;;;;;;31.52;17.50;;;;;;;2.24;76.80;101977.94;5050787;28;20037;-70
2021/03/03 07:57:46;;;;;;;32.33;17.33;;;;;;;2.36;76.64;101983.75;5051047;28;20094;-70
2021/03/03 08:00:24;;;;;;;26.42;15.88;;;;;;;2.46;76.74;101980.78;5051091;28;20040;-69
2021/03/03 08:02:51;;;;;;;27.02;14.98;;;;;;;2.60;76.65;101984.97;5051123;28;20098;-70
2021/03/03 08:05:37;;;;;;;24.75;14.15;;;;;;;2.77;76.04;101971.88;5050818;28;20080;-70
2021/03/03 08:10:51;;;;;;;21.38;12.68;;;;;;;3.16;74.77;101970.25;5051003;28;20056;-70
2021/03/03 08:13:31;;;;;;;21.20;13.27;;;;;;;3.31;73.50;101964.00;5050847;28;20076;-69
2021/03/03 08:15:58;;;;;;;24.02;13.70;;;;;;;3.50;73.61;101967.50;5043299;28;20040;-70
2021/03/03 08:18:33;;;;;;;23.55;13.32;;;;;;;3.65;72.42;101964.69;5051054;28;20495;-70
2021/03/03 08:21:22;;;;;;;22.45;12.05;;;;;;;3.82;71.25;101962.81;5043836;28;20044;-70
2021/03/03 08:23:48;;;;;;;20.13;11.60;;;;;;;4.04;69.38;101953.34;5050805;28;20037;-69
2021/03/03 08:26:16;;;;;;;19.08;11.35;;;;;;;4.23;70.00;101966.34;5050592;28;20056;-70
2021/03/03 08:28:53;;;;;;;20.42;12.07;;;;;;;4.38;68.66;101961.78;5050861;28;20033;-70
2021/03/03 08:31:20;;;;;;;19.67;11.52;;;;;;;4.52;68.54;101964.06;5050877;28;20087;-70
2021/03/03 08:33:48;;;;;;;16.35;10.18;;;;;;;4.68;67.31;101956.00;5050788;28;20049;-70
2021/03/03 08:36:16;;;;;;;20.25;11.13;;;;;;;4.82;67.40;101959.19;5050786;28;20060;-70
2021/03/03 08:38:42;;;;;;;17.30;10.57;;;;;;;4.94;66.75;101943.97;5050900;28;20041;-70
2021/03/03 08:41:16;;;;;;;17.48;11.63;;;;;;;5.03;66.31;101946.03;5050793;28;20040;-70
2021/03/03 08:43:49;;;;;;;20.95;11.38;;;;;;;5.13;66.67;101952.53;5050768;28;20025;-70
2021/03/03 08:46:17;;;;;;;18.20;11.32;;;;;;;5.24;67.14;101956.50;5050397;28;20029;-70
2021/03/03 08:48:42;;;;;;;19.48;11.45;;;;;;;5.36;65.57;101958.66;5050627;28;20033;-70
2021/03/03 08:51:30;;;;;;;18.33;10.90;;;;;;;5.41;64.12;101944.91;5050341;28;20163;-69
2021/03/03 08:53:57;;;;;;;26.63;15.35;;;;;;;5.56;65.81;101947.22;5043117;28;20402;-70
2021/03/03 08:56:38;;;;;;;39.75;18.15;;;;;;;5.70;66.66;101950.34;5050249;28;20040;-70
2021/03/03 08:59:28;;;;;;;33.47;18.25;;;;;;;5.84;66.14;101948.19;5043962;28;20055;-70
2021/03/03 09:02:07;;;;;;;41.15;19.85;;;;;;;5.99;66.35;101940.03;5042526;28;20066;-70
2021/03/03 09:04:40;;;;;;;39.08;19.10;;;;;;;6.13;66.70;101944.94;5050502;28;20037;-70
2021/03/03 09:07:07;;;;;;;;;;;;;;;6.20;65.34;101939.88;5051071;28;20395;-70
2021/03/03 09:09:45;;;;;;;28.10;12.52;;;;;;;6.31;64.42;101926.31;5052023;28;19995;-70
2021/03/03 09:12:31;;;;;;;21.83;12.55;;;;;;;6.39;64.66;101934.41;5054177;28;20220;-70
2021/03/03 09:14:59;;;;;;;20.02;11.43;;;;;;;6.47;64.34;101932.03;5046405;28;20032;-70
2021/03/03 09:17:27;;;;;;;21.40;12.63;;;;;;;6.54;63.96;101940.16;5053938;28;20037;-70
2021/03/03 09:19:58;;;;;;;19.00;11.60;;;;;;;6.67;63.04;101927.47;5045917;28;20068;-70
2021/03/03 09:22:44;;;;;;;20.00;11.60;;;;;;;6.80;61.88;101938.38;5053152;28;20032;-70
2021/03/03 09:25:11;;;;;;;22.38;12.35;;;;;;;6.96;62.14;101926.63;5049893;28;20044;-69
2021/03/03 09:27:38;;;;;;;18.60;11.35;;;;;;;7.09;62.26;101929.66;5053658;28;20071;-70
2021/03/03 09:30:04;;;;;;;19.77;11.73;;;;;;;7.23;61.47;101928.31;5053711;28;20032;-70
2021/03/03 09:32:29;;;;;;;21.05;11.55;;;;;;;7.33;60.44;101919.84;5053698;28;20029;-70
2021/03/03 09:35:06;;;;;;;18.58;10.43;;;;;;;7.50;60.95;101927.38;5053637;28;20053;-70
2021/03/03 09:37:42;;;;;;;18.23;11.50;;;;;;;7.64;60.69;101913.75;5035840;28;20162;-70
2021/03/03 09:40:14;;;;;;;18.35;11.55;;;;;;;7.78;60.96;101913.25;5053584;28;20063;-70
2021/03/03 09:42:41;;;;;;;16.70;10.33;;;;;;;7.87;60.11;101917.00;5053607;28;20033;-70
2021/03/03 09:45:09;;;;;;;18.92;11.55;;;;;;;7.92;59.97;101917.16;5053201;28;20286;-70
2021/03/03 09:47:37;;;;;;;16.55;10.82;;;;;;;8.04;59.85;101916.56;5053491;28;20033;-70
2021/03/03 09:50:07;;;;;;;21.13;12.07;;;;;;;8.12;60.23;101910.69;5053458;28;20143;-70
2021/03/03 09:52:44;;;;;;;17.52;11.90;;;;;;;8.24;58.56;101910.09;5053544;28;20048;-70
2021/03/03 09:55:14;;;;;;;17.77;11.65;;;;;;;8.33;59.75;101905.06;5053229;28;20041;-70
2021/03/03 09:57:47;;;;;;;16.20;10.90;;;;;;;8.48;58.14;101896.69;5053295;28;20044;-70
2021/03/03 10:00:16;;;;;;;18.58;11.85;;;;;;;8.69;58.23;101903.31;5053375;28;20044;-70
2021/03/03 10:02:48;;;;;;;18.08;10.98;;;;;;;8.85;57.91;101905.44;5053160;28;20033;-70
2021/03/03 10:05:23;;;;;;;20.38;12.30;;;;;;;8.99;57.29;101889.97;5052871;28;20029;-70
2021/03/03 10:07:51;;;;;;;18.95;12.77;;;;;;;9.19;57.15;101886.00;5053074;28;20033;-70
2021/03/03 10:10:18;;;;;;;17.08;10.98;;;;;;;9.30;56.17;101890.59;5053126;28;20037;-70
2021/03/03 10:12:44;;;;;;;19.90;11.88;;;;;;;9.35;56.56;101887.25;5052911;28;20064;-70
2021/03/03 10:15:12;;;;;;;20.77;13.13;;;;;;;9.43;55.95;101895.28;5052721;28;20110;-70
2021/03/03 10:17:39;;;;;;;20.48;12.45;;;;;;;9.58;56.08;101890.31;5053003;28;20037;-70
2021/03/03 10:20:27;;;;;;;18.13;11.48;;;;;;;9.70;55.12;101883.53;5052302;28;20029;-70
2021/03/03 10:22:54;;;;;;;20.92;12.98;;;;;;;9.86;55.49;101883.81;5044940;28;20041;-70
2021/03/03 10:25:31;;;;;;;20.83;13.45;;;;;;;10.00;55.15;101876.16;5052588;28;20029;-70
2021/03/03 10:28:19;;;;;;;17.80;11.77;;;;;;;10.18;55.13;101878.22;5045307;28;20037;-70
2021/03/03 10:30:52;;;;;;;17.23;11.32;;;;;;;10.39;54.55;101874.22;5052650;28;20033;-70
2021/03/03 10:33:29;;;;;;;16.70;11.40;;;;;;;10.48;53.96;101862.06;5034854;28;20037;-70
2021/03/03 10:35:56;;;;;;;20.90;12.80;;;;;;;10.58;54.41;101863.06;5044428;28;20033;-70
2021/03/03 10:38:23;;;;;;;19.85;12.57;;;;;;;10.66;54.24;101855.25;5052608;28;20029;-70
2021/03/03 10:40:50;;;;;;;20.83;13.20;;;;;;;10.76;54.67;101859.81;5052430;28;20036;-70
2021/03/03 10:43:22;;;;;;;19.80;12.00;;;;;;;10.86;54.02;101852.91;5052424;28;20517;-70
2021/03/03 10:45:49;;;;;;;20.58;13.73;;;;;;;10.96;54.28;101853.06;5052312;28;20563;-70
2021/03/03 10:48:33;;;;;;;26.92;13.90;;;;;;;11.10;53.97;101858.50;5052407;28;20036;-70
2021/03/03 10:51:01;;;;;;;21.52;12.88;;;;;;;11.37;52.18;101852.69;5045214;28;20025;-70
2021/03/03 10:53:58;;;;;;;19.50;12.27;;;;;;;11.58;52.11;101845.84;5051955;28;20044;-70
2021/03/03 10:56:31;;;;;;;25.90;15.95;;;;;;;11.78;51.40;101848.69;5048086;28;20086;-70
2021/03/03 10:58:58;;;;;;;20.42;13.82;;;;;;;11.94;51.33;101845.34;5044556;28;20040;-69
2021/03/03 11:01:39;;;;;;;20.65;13.75;;;;;;;12.00;50.75;101840.16;5051873;28;20514;-70
2021/03/03 11:04:05;;;;;;;23.27;15.38;;;;;;;11.94;51.46;101841.84;5045511;28;20078;-70
2021/03/03 11:06:33;;;;;;;25.35;13.35;;;;;;;11.96;51.91;101835.69;5052001;28;20029;-70
2021/03/03 11:08:59;;;;;;;21.20;12.52;;;;;;;12.14;50.96;101826.16;5051573;28;20483;-71
2021/03/03 11:11:25;;;;;;;19.50;12.70;;;;;;;12.18;50.34;101831.47;5043682;28;20517;-71
2021/03/03 11:13:50;;;;;;;20.90;13.73;;;;;;;12.21;51.14;101822.69;5051830;28;20033;-71
2021/03/03 11:16:15;;;;;;;22.80;13.98;;;;;;;12.26;50.63;101819.19;5051594;28;20040;-70
2021/03/03 11:18:41;;;;;;;21.25;13.43;;;;;;;12.45;49.95;101814.03;5051707;28;20115;-70
2021/03/03 11:21:06;;;;;;;19.70;12.48;;;;;;;12.61;50.28;101802.63;5051171;28;20040;-70